Milner, Georgia
Current Conditions -  °F | °C
As of 12:55 PM on Friday 24 Oct 2014 (Local Time) from K6A2 Reporting Station
Clear Clear  
Wind Chill: 68°   Ceiling: Unl
Heat Index: 68°   Visibility: 10mi
Dew Point: 45°   Wind: 3mph
Humidity: 43%   Direction: 150°SSE
Pressure: 30.05"   Gusts: NA
Location:  33.12°N, 84.2°W
Report Text: K6A2 241655Z AUTO 15003KT 10SM CLR 20/07 A3005 RMK AO2
Loading
Personal Weather Stations






























Interactive Weather Map
Tropical Storm Tracking
New forecast layout! Learn more

10-Day Weather Forecast

Advertisements
Track Severe Weather on mobile